»·PEaware :: PHKIM KCVO-KDLS

PHKIM :: KCVO-KDLS

FLIGHT INFORMATION

Flight Status: Arrived
Operator: Unknown
More flights by this operator :: More flights under this callsign
Pilot: Kim B. (19519)
Aircraft: ECLIPSE 500
(EA50)
More flights by this aircraft type
Origin: KCVO Corvallis Mun
United States
Destination: KDLS Columbia Gorge Regl/The Dalle
United States
More flights between these airports :: More routes between these airports
Route: +SHEDD3 SHEDD EUG J143 LTJ
File this flight plan on PilotEdge
Remarks:
Altitude:
(Current/Filed)
19,000ft
Speed:
(Current/Filed)
250kts
Departed: 19-Oct-18 07:34 PM
Arrived: 19-Oct-18 08:18 PM
Distance/Time
Traveled:
112nm/0:44
Distance/Time
To Go:
Arrived

Flight Plot

Page will automatically refresh every two minutes.

Flight plan parsing failed; only flown route is shown


Map Options




Map Legend


Flown Route
Filed Route
Departure Airport
Arrival Airport
Navaid (VOR, NDB)
Fix

Horizontal Profiles

Position Reports

Time Latitude Longitude Heading Altitude Ground
Speed
19-Oct-18 19:10 44.502847 -123.286295 113 242ft 0kts
19-Oct-18 19:11 44.502847 -123.286295 113 242ft 0kts
19-Oct-18 19:12 44.502847 -123.286295 113 242ft 0kts
19-Oct-18 19:13 44.502847 -123.286295 113 242ft 0kts
19-Oct-18 19:14 44.502847 -123.286295 113 242ft 0kts
19-Oct-18 19:15 44.502847 -123.286295 113 242ft 0kts
19-Oct-18 19:16 44.502847 -123.286295 113 242ft 0kts
19-Oct-18 19:17 44.502847 -123.286295 113 242ft 0kts
19-Oct-18 19:18 44.502847 -123.286295 113 242ft 0kts
19-Oct-18 19:19 44.502847 -123.286295 113 242ft 0kts
19-Oct-18 19:20 44.502847 -123.286295 113 242ft 0kts
19-Oct-18 19:21 44.502765 -123.286104 140 242ft 3kts
19-Oct-18 19:22 44.502085 -123.286764 290 242ft 5kts
19-Oct-18 19:23 44.502817 -123.289289 291 242ft 6kts
19-Oct-18 19:24 44.503015 -123.289909 293 242ft 0kts
19-Oct-18 19:25 44.503015 -123.289909 293 242ft 0kts
19-Oct-18 19:26 44.503015 -123.289909 293 242ft 0kts
19-Oct-18 19:27 44.503015 -123.289909 293 242ft 0kts
19-Oct-18 19:28 44.503015 -123.289909 293 242ft 0kts
19-Oct-18 19:29 44.503014 -123.289908 293 242ft 0kts
19-Oct-18 19:30 44.503014 -123.289908 293 242ft 0kts
19-Oct-18 19:31 44.503014 -123.289908 293 242ft 0kts
19-Oct-18 19:32 44.503014 -123.289908 293 242ft 0kts
19-Oct-18 19:33 44.503014 -123.289908 293 242ft 0kts
19-Oct-18 19:34 44.503014 -123.289908 293 242ft 0kts
19-Oct-18 19:35 44.503122 -123.290961 231 242ft 6kts
19-Oct-18 19:36 44.478724 -123.288694 147 726ft 209kts
19-Oct-18 19:37 44.483985 -123.215434 34 1396ft 257kts
19-Oct-18 19:38 44.534039 -123.166072 34 2088ft 221kts
19-Oct-18 19:39 44.571212 -123.117329 88 2819ft 181kts
19-Oct-18 19:40 44.538059 -123.093392 175 3909ft 133kts
19-Oct-18 19:41 44.506820 -123.089807 179 5055ft 132kts
19-Oct-18 19:42 44.454179 -123.097325 195 6473ft 243kts
19-Oct-18 19:43 44.382699 -123.123949 194 8068ft 292kts
19-Oct-18 19:44 44.333149 -123.056773 79 10144ft 291kts
19-Oct-18 19:45 44.394075 -122.995344 46 11625ft 296kts
19-Oct-18 19:46 44.447509 -122.911368 48 13187ft 301kts
19-Oct-18 19:47 44.500690 -122.834738 47 14636ft 307kts
19-Oct-18 19:48 44.560762 -122.750461 46 16212ft 315kts
19-Oct-18 19:49 44.623140 -122.663470 46 17797ft 315kts
19-Oct-18 19:50 44.682452 -122.580697 46 18982ft 308kts
19-Oct-18 19:51 44.746187 -122.491459 46 18997ft 338kts
19-Oct-18 19:52 44.810637 -122.401020 46 19151ft 337kts
19-Oct-18 19:53 44.876693 -122.308004 47 19247ft 337kts
19-Oct-18 19:54 44.937637 -122.221895 47 19243ft 336kts
19-Oct-18 19:55 45.002647 -122.129720 47 19239ft 341kts
19-Oct-18 19:56 45.069805 -122.034099 46 19239ft 347kts
19-Oct-18 19:57 45.136370 -121.939035 45 19236ft 350kts
19-Oct-18 19:58 45.194760 -121.855504 45 19250ft 350kts
19-Oct-18 19:59 45.262432 -121.758285 45 19277ft 350kts
19-Oct-18 20:00 45.324009 -121.652656 58 18736ft 349kts
19-Oct-18 20:01 45.374716 -121.539862 57 17246ft 338kts
19-Oct-18 20:02 45.422542 -121.435413 57 15608ft 278kts
19-Oct-18 20:03 45.461868 -121.349643 57 13922ft 255kts
19-Oct-18 20:04 45.496412 -121.274187 57 12377ft 248kts
19-Oct-18 20:05 45.527967 -121.205055 56 10927ft 242kts
19-Oct-18 20:06 45.557044 -121.141241 56 9549ft 234kts
19-Oct-18 20:07 45.590954 -121.066738 55 8318ft 217kts
19-Oct-18 20:08 45.623737 -120.994542 56 8311ft 231kts
19-Oct-18 20:09 45.654920 -120.925645 56 8311ft 231kts
19-Oct-18 20:10 45.694780 -120.857621 42 8307ft 210kts
19-Oct-18 20:11 45.729083 -120.796498 73 8312ft 210kts
19-Oct-18 20:12 45.693865 -120.772578 239 8307ft 205kts
19-Oct-18 20:13 45.682033 -120.851181 257 7444ft 220kts
19-Oct-18 20:14 45.667918 -120.928117 254 5685ft 194kts
19-Oct-18 20:15 45.655031 -120.991017 254 4714ft 162kts
19-Oct-18 20:16 45.645498 -121.036135 253 3647ft 140kts
19-Oct-18 20:17 45.631712 -121.090217 244 2216ft 125kts
19-Oct-18 20:18 45.621446 -121.137139 271 697ft 119kts
19-Oct-18 20:19 45.621086 -121.169388 268 219ft 58kts
19-Oct-18 20:20 45.620674 -121.171184 177 216ft 3kts

Navigation Log

Ident Type
Flight plan parsing failed, navigation log unavailable